Weather history for 0319

Weather History For Prescott AZ

This page updates 5 minutes after midnight. GMT -7

Station: KPRC0 Rows: 26

Return to today's weather
Year Date Temp (°F) Tmin (°F) Tmax (°F) RH% Prcp Snow Wind Gust Pres Sun Cloud
2000 2000-03-19 49.3 30.9 66.9 30 12.8 29.91 1
2001 2001-03-19 52.2 35.1 69.1 42 9.3 30.10 0
2002 2002-03-19 43.0 39 10.3 30.09 0
2003 2003-03-19 0.00
2004 2004-03-19 58.1 39.2 77.0 29 8.7 30.03 0
2005 2005-03-19 41.4 36.0 46.0 85 12.4 29.89 8
2006 2006-03-19 32.9 27.0 41.0 79 9.9 29.69 6
2007 2007-03-19 56.1 39.9 72.0 19 0.0 11.0 29.88 0
2008 2008-03-19 47.8 30.0 64.9 38 0.0 8.4 30.07 0
2009 2009-03-19 55.9 37.9 73.9 31 0.0 8.3 29.95 0
2010 2010-03-19 0.00
2011 2011-03-19 50.9 39.9 61.0 18 0.0 16.1 29.88 0
2012 2012-03-19 29.5 25.0 35.1 74 8.9 29.83 4
2013 2013-03-19 57.7 48.9 69.1 27 0.0 7.1 29.91 2
2014 2014-03-19 47.5 30.0 64.9 16 0.0 9.7 30.03 0
2015 2015-03-19 50.0 45.0 55.0 76 4.9 29.93
2016 2016-03-19 55.9 36.0 73.0 25 0.0 9.9 29.96 0
2017 2017-03-19 60.1 44.1 77.0 36 0.0 12.8 30.09 0
2018 2018-03-19 42.1 27.0 55.9 35 0.0 8.7 30.04 0
2019 2019-03-19 51.4 36.0 66.0 46 0.0 9.8 29.98 2
2020 2020-03-19 36.1 32.0 41.0 83 12.5 29.98
2021 2021-03-19 50.7 32.0 69.1 36 0.0 10.8 30.06 0
2022 2022-03-19 49.1 32.0 64.0 28 0.0 13.8 29.96 0
2023 2023-03-19 44.8 37.9 51.1 51 18.6 29.98 4
2024 2024-03-19 42.1 30.0 57.9 76 0.0 7.3 30.03 2
2025 2025-03-19 40.8 28.9 55.0 32 0.0 10.8 30.26 0
Average Low 34.8
Average High 61.1

Daily High / Low by Year (03/19)

Barometric Pressure by Year (03/19)

Weather data provided by Meteostat